ENEV

Harstad / Narvik , Evenes Airport

Evenes, Norway
METAR ENEV 152150Z VRB01KT 9999 BKN066 12/10 Q1007 RMK WIND 1400FT 11006KT
Observed Flight Rules
Aug-15 @ 21:50 UTC (36 minutes ago) Visual Flight Rules
Wind Visibility Clouds
Variable at 1 knots 10,000+ meters
  • Broken at 6,600' AGL
Temperatures Readings
Current 12°C / 54°F
Dewpoint 10°C / 50°F
Humidity 88%
Altimeter 29.73" Hg
Pressure 1007 hPa
Elevation 26
METAR ENEV 152150Z VRB01KT 9999 BKN066 12/10 Q1007 RMK WIND 1400FT 11006KT
Observed Flight Rules
Aug-15 @ 21:50 UTC
(36 minutes ago)
VFR
Wind Visibility
Variable at 1 knots 10,000+ meters
Clouds
  • Broken at 6,600' AGL
Temperature Dewpoint
12°C / 54°F 10°C / 50°F
Humidity Altimeter Pressure
88% 29.73" Hg 1007 hPa